Accueil
METAR-TAF:

METAR-TAF

Aéroports :

Col de Resia, Italie

latitude: 46-50N, longitude: 010-30E, altitude: 1800 m

Observation

Le bulletin a été fait il y a 26 minutes, à 10:55 UTC
Vent 9 kt de sud
Température 1°C
Humidité 86%
Pression 1010 hPa
Visibilité: 7000 m
Nuages épars à une hauteur de 1500 ft
Nuages fragmentés à une hauteur de 2000 ft

METAR: LIVE 251055Z 18009KT 7000 SCT015 BKN020 01/M01 Q1010 RMK OVC VIS MIN 7000

Heure: 12:21 (11:21 UTC)


TAF: absent

Observations et prévisions météorologiques de plus de 4000 aéroports (messages METAR et TAF).

Les stations disponibles sont représentées par des disques jaunes et rouges sur la carte.

Passer la souris dessus pour voir le nom de la station.

Cliquer dessus pour voir les observations et prévisions météorologiques.

Pour changer de carte: cliquez sur les boutons verts avec une croix noire pour zoomer, sur le bouton vert avec un tiret pour effectuer un zoom arrière, ou sur les flèches vertes pour les cartes adjacentes.


METAR-TAF: